createdAt,value
2022-08-03T00:00:26.166Z,24.40
2022-08-03T00:02:52.804Z,24.30
2022-08-03T00:05:19.412Z,24.31
2022-08-03T00:07:45.941Z,24.29
2022-08-03T00:10:15.218Z,24.33
2022-08-03T00:12:41.763Z,24.34
2022-08-03T00:15:11.102Z,24.40
2022-08-03T00:17:52.423Z,24.37
2022-08-03T00:20:23.249Z,24.37
2022-08-03T00:22:50.368Z,24.33
2022-08-03T00:25:17.614Z,24.29
2022-08-03T00:27:44.167Z,24.29
2022-08-03T00:30:11.029Z,24.24
2022-08-03T00:32:42.174Z,24.04
2022-08-03T00:35:18.236Z,23.98
2022-08-03T00:37:59.685Z,24.01
2022-08-03T00:40:26.658Z,23.91
2022-08-03T00:42:58.048Z,23.97
2022-08-03T00:45:33.264Z,23.97
2022-08-03T00:48:00.277Z,23.93
2022-08-03T00:50:28.857Z,23.83
2022-08-03T00:52:58.063Z,23.78
2022-08-03T00:55:25.764Z,23.77
2022-08-03T00:57:52.632Z,23.81
2022-08-03T01:00:23.423Z,24.00
2022-08-03T01:02:50.502Z,24.08
2022-08-03T01:05:17.860Z,24.11
2022-08-03T01:08:11.927Z,24.16
2022-08-03T01:10:50.319Z,24.17
2022-08-03T01:14:03.929Z,24.21
2022-08-03T01:16:36.576Z,24.18
2022-08-03T01:19:28.406Z,24.08
2022-08-03T01:22:16.356Z,24.12
2022-08-03T01:25:28.088Z,24.27
2022-08-03T01:28:12.770Z,24.22
2022-08-03T01:30:43.698Z,24.28
2022-08-03T01:33:17.853Z,24.27
2022-08-03T01:35:54.346Z,24.18
2022-08-03T01:38:34.397Z,24.13
2022-08-03T01:41:07.369Z,24.18
2022-08-03T01:44:27.264Z,24.32
2022-08-03T01:46:25.705Z,24.34
2022-08-03T01:48:54.877Z,24.28
2022-08-03T01:51:22.636Z,24.25
2022-08-03T01:53:51.540Z,24.29
2022-08-03T01:56:20.298Z,24.35
2022-08-03T01:58:49.178Z,24.37
2022-08-03T02:01:17.123Z,24.20
2022-08-03T02:03:59.982Z,24.23
2022-08-03T02:06:59.763Z,24.16
2022-08-03T02:09:20.570Z,24.15
2022-08-03T02:11:49.001Z,24.15
2022-08-03T02:14:16.627Z,24.06
2022-08-03T02:16:45.928Z,23.97
2022-08-03T02:19:13.803Z,23.97
2022-08-03T02:21:57.387Z,23.93
2022-08-03T02:24:28.867Z,23.75
2022-08-03T02:26:57.552Z,23.78
2022-08-03T02:29:40.285Z,23.71
2022-08-03T02:32:12.379Z,23.69
2022-08-03T02:34:42.198Z,23.77
2022-08-03T02:37:11.914Z,23.75
2022-08-03T02:39:41.015Z,23.51
2022-08-03T02:42:13.504Z,23.42
2022-08-03T02:44:41.569Z,23.51
2022-08-03T02:47:10.870Z,23.61
2022-08-03T02:49:50.527Z,23.67
2022-08-03T02:52:20.708Z,23.68
2022-08-03T02:54:51.141Z,23.58
2022-08-03T02:57:19.398Z,23.59
2022-08-03T02:59:47.129Z,23.50
2022-08-03T03:02:16.022Z,23.57
2022-08-03T03:05:52.409Z,23.54
2022-08-03T03:07:35.350Z,23.52
2022-08-03T03:10:18.967Z,23.48
2022-08-03T03:12:46.808Z,23.41
2022-08-03T03:15:13.342Z,23.18
2022-08-03T03:17:41.316Z,23.02
2022-08-03T03:20:08.900Z,22.96
2022-08-03T03:22:36.133Z,23.06
2022-08-03T03:25:02.996Z,22.97
2022-08-03T03:27:30.515Z,23.00
2022-08-03T03:29:59.061Z,22.86
2022-08-03T03:32:28.004Z,22.77
2022-08-03T03:34:55.932Z,22.75
2022-08-03T03:37:22.477Z,22.46
2022-08-03T03:39:48.952Z,22.34
2022-08-03T03:42:15.590Z,22.36
2022-08-03T03:44:42.338Z,22.38
2022-08-03T03:47:08.928Z,22.42
2022-08-03T03:49:36.383Z,22.48
2022-08-03T03:52:02.972Z,22.53
2022-08-03T03:54:43.300Z,22.56
2022-08-03T03:57:13.105Z,22.58
2022-08-03T03:59:43.736Z,22.58
2022-08-03T04:02:11.550Z,22.61
2022-08-03T04:04:57.957Z,22.61
2022-08-03T04:07:45.058Z,22.52
2022-08-03T04:10:41.794Z,22.57
2022-08-03T04:13:10.926Z,22.50
2022-08-03T04:15:39.957Z,22.32
2022-08-03T04:18:09.769Z,22.25
2022-08-03T04:20:38.791Z,22.08
2022-08-03T04:23:13.604Z,22.06
2022-08-03T04:25:44.390Z,22.28
2022-08-03T04:28:30.652Z,22.44
2022-08-03T04:30:59.755Z,22.36
2022-08-03T04:33:29.631Z,22.30
2022-08-03T04:36:01.292Z,22.22
2022-08-03T04:38:31.687Z,22.28
2022-08-03T04:41:00.456Z,22.37
2022-08-03T04:43:28.494Z,22.41
2022-08-03T04:45:55.859Z,22.37
2022-08-03T04:48:22.824Z,22.53
2022-08-03T04:50:49.389Z,22.70
2022-08-03T04:53:16.501Z,22.68
2022-08-03T04:55:43.103Z,22.65
2022-08-03T04:58:09.593Z,22.85
2022-08-03T05:00:36.213Z,23.06
2022-08-03T05:03:02.794Z,23.29
2022-08-03T05:05:34.621Z,23.51
2022-08-03T05:08:15.620Z,23.74
2022-08-03T05:10:42.216Z,23.78
2022-08-03T05:13:12.885Z,24.02
2022-08-03T05:15:42.998Z,24.14
2022-08-03T05:18:13.860Z,24.19
2022-08-03T05:20:40.834Z,24.32
2022-08-03T05:23:07.372Z,24.31
2022-08-03T05:25:33.828Z,24.07
2022-08-03T05:28:00.376Z,24.03
2022-08-03T05:30:33.696Z,23.83
2022-08-03T05:33:02.165Z,23.92
2022-08-03T05:36:01.805Z,24.06
2022-08-03T05:38:23.749Z,24.05
2022-08-03T05:40:56.824Z,24.07
2022-08-03T05:43:24.705Z,24.09
2022-08-03T05:46:11.673Z,24.25
2022-08-03T05:48:37.954Z,24.31
2022-08-03T05:51:07.516Z,24.36
2022-08-03T05:53:34.790Z,24.52
2022-08-03T05:56:03.490Z,24.63
2022-08-03T05:58:41.845Z,24.69
2022-08-03T06:01:08.439Z,24.72
2022-08-03T06:03:34.997Z,24.80
2022-08-03T06:06:01.583Z,24.81
2022-08-03T06:08:28.164Z,25.16
2022-08-03T06:10:54.849Z,25.48
2022-08-03T06:13:22.016Z,25.67
2022-08-03T06:15:48.560Z,25.70
2022-08-03T06:18:15.053Z,25.36
2022-08-03T06:20:41.614Z,25.23
2022-08-03T06:23:08.150Z,25.18
2022-08-03T06:25:43.043Z,25.14
2022-08-03T06:28:15.074Z,25.25
2022-08-03T06:30:50.471Z,25.39
2022-08-03T06:33:17.133Z,25.63
2022-08-03T06:35:45.234Z,25.61
2022-08-03T06:38:12.957Z,25.63
2022-08-03T06:40:42.478Z,25.60
2022-08-03T06:43:12.864Z,25.62
2022-08-03T06:45:42.511Z,25.49
2022-08-03T06:48:11.433Z,25.42
2022-08-03T06:50:39.507Z,25.49
2022-08-03T06:53:06.219Z,25.60
2022-08-03T06:55:33.099Z,25.75
2022-08-03T06:57:59.766Z,25.92
2022-08-03T07:00:30.886Z,26.08
2022-08-03T07:02:58.504Z,26.18
2022-08-03T07:05:25.364Z,26.24
2022-08-03T07:07:55.782Z,26.30
2022-08-03T07:10:22.146Z,26.45
2022-08-03T07:12:55.895Z,26.52
2022-08-03T07:15:55.222Z,26.57
2022-08-03T07:18:10.219Z,26.62
2022-08-03T07:20:36.725Z,26.67
2022-08-03T07:23:03.349Z,26.68
2022-08-03T07:25:29.790Z,26.76
2022-08-03T07:27:56.341Z,26.81
2022-08-03T07:30:23.172Z,26.89
2022-08-03T07:32:50.573Z,26.93
2022-08-03T07:35:24.477Z,26.97
2022-08-03T07:37:54.656Z,26.97
2022-08-03T07:40:22.412Z,27.06
2022-08-03T07:42:52.269Z,27.24
2022-08-03T07:45:21.409Z,27.24
2022-08-03T07:47:53.733Z,27.31
2022-08-03T07:50:20.673Z,27.36
2022-08-03T07:52:50.373Z,27.46
2022-08-03T07:55:19.476Z,27.37
2022-08-03T07:57:46.263Z,27.37
2022-08-03T08:00:19.151Z,27.42
2022-08-03T08:02:46.016Z,27.52
2022-08-03T08:05:13.044Z,27.54
2022-08-03T08:07:40.224Z,27.54
2022-08-03T08:10:10.025Z,27.55
2022-08-03T08:12:38.830Z,27.53
2022-08-03T08:15:07.161Z,27.74
2022-08-03T08:17:49.256Z,27.91
2022-08-03T08:20:28.651Z,27.83
2022-08-03T08:23:03.561Z,28.04
2022-08-03T08:25:37.459Z,28.09
2022-08-03T08:28:29.062Z,27.99
2022-08-03T08:30:51.063Z,27.92
2022-08-03T08:33:22.768Z,28.03
2022-08-03T08:35:51.885Z,28.23
2022-08-03T08:38:18.362Z,28.28
2022-08-03T08:40:45.117Z,28.45
2022-08-03T08:43:11.660Z,28.51
2022-08-03T08:45:38.650Z,28.49
2022-08-03T08:48:08.447Z,28.67
2022-08-03T08:50:37.295Z,28.74
2022-08-03T08:53:07.104Z,28.86
2022-08-03T08:55:58.940Z,29.02
2022-08-03T08:58:24.473Z,29.18
2022-08-03T09:00:51.554Z,29.23
2022-08-03T09:03:29.362Z,29.35
2022-08-03T09:05:58.981Z,29.30
2022-08-03T09:08:25.986Z,29.14
2022-08-03T09:10:52.686Z,29.30
2022-08-03T09:13:19.351Z,29.39
2022-08-03T09:15:59.830Z,29.53
2022-08-03T09:18:32.313Z,29.56
2022-08-03T09:21:36.010Z,29.48
2022-08-03T09:24:06.185Z,29.85
2022-08-03T09:26:37.111Z,29.95
2022-08-03T09:29:14.943Z,29.76
2022-08-03T09:31:44.669Z,29.98
2022-08-03T09:34:14.213Z,29.96
2022-08-03T09:36:46.229Z,30.20
2022-08-03T09:39:15.278Z,30.52
2022-08-03T09:41:47.526Z,30.87
2022-08-03T09:44:24.986Z,30.73
2022-08-03T09:46:56.108Z,30.73
2022-08-03T09:49:22.968Z,30.69
2022-08-03T09:52:33.019Z,30.42
2022-08-03T09:54:36.590Z,30.50
2022-08-03T09:57:03.211Z,30.66
2022-08-03T09:59:31.231Z,30.50
2022-08-03T10:01:59.756Z,30.26
2022-08-03T10:04:26.732Z,30.38
2022-08-03T10:07:10.062Z,30.33
2022-08-03T10:09:37.598Z,30.35
2022-08-03T10:12:09.162Z,30.55
2022-08-03T10:14:38.258Z,30.67
2022-08-03T10:17:04.839Z,30.59
2022-08-03T10:19:31.340Z,30.73
2022-08-03T10:22:03.296Z,30.90
2022-08-03T10:24:34.605Z,31.08
2022-08-03T10:27:08.171Z,31.56
2022-08-03T10:29:39.668Z,31.62
2022-08-03T10:32:17.478Z,31.51
2022-08-03T10:34:45.057Z,31.44
2022-08-03T10:37:14.341Z,31.54
2022-08-03T10:39:53.467Z,31.70
2022-08-03T10:42:24.887Z,31.87
2022-08-03T10:45:18.102Z,31.66
2022-08-03T10:47:46.560Z,31.54
2022-08-03T10:50:13.322Z,31.79
2022-08-03T10:53:03.890Z,31.57
2022-08-03T10:55:59.338Z,31.50
2022-08-03T10:58:37.213Z,31.52
2022-08-03T11:01:13.526Z,31.31
2022-08-03T11:03:52.250Z,31.31
2022-08-03T11:06:20.737Z,31.68
2022-08-03T11:08:48.845Z,31.65
2022-08-03T11:11:18.413Z,31.54
2022-08-03T11:14:07.582Z,31.63
2022-08-03T11:16:48.481Z,31.87
2022-08-03T11:19:17.813Z,32.09
2022-08-03T11:21:50.643Z,32.11
2022-08-03T11:24:51.270Z,31.83
2022-08-03T11:27:19.806Z,31.96
2022-08-03T11:30:00.573Z,32.11
2022-08-03T11:32:46.565Z,32.16
2022-08-03T11:35:22.520Z,32.13
2022-08-03T11:38:04.381Z,31.94
2022-08-03T11:40:53.547Z,31.96
2022-08-03T11:43:30.661Z,31.89
2022-08-03T11:46:28.154Z,31.64
2022-08-03T11:49:09.856Z,31.50
2022-08-03T11:51:37.855Z,31.51
2022-08-03T11:54:06.540Z,31.50
2022-08-03T11:56:49.972Z,31.62
2022-08-03T11:59:21.681Z,31.70
2022-08-03T12:01:49.462Z,31.91
2022-08-03T12:04:16.354Z,31.90
2022-08-03T12:06:58.609Z,31.88
2022-08-03T12:09:25.111Z,32.00
2022-08-03T12:12:00.552Z,31.86
2022-08-03T12:14:50.665Z,31.61
2022-08-03T12:17:15.964Z,31.66
2022-08-03T12:19:43.840Z,31.89
2022-08-03T12:22:10.394Z,32.11
2022-08-03T12:24:41.994Z,32.00
2022-08-03T12:27:08.508Z,31.99
2022-08-03T12:29:35.173Z,32.15
2022-08-03T12:32:01.758Z,32.15
2022-08-03T12:34:48.363Z,32.05
2022-08-03T12:37:19.280Z,32.14
2022-08-03T12:40:02.982Z,32.42
2022-08-03T12:42:38.845Z,32.36
2022-08-03T12:45:37.825Z,32.12
2022-08-03T12:48:09.203Z,32.22
2022-08-03T12:50:37.609Z,32.22
2022-08-03T12:53:08.898Z,32.12
2022-08-03T12:55:57.183Z,31.96
2022-08-03T12:58:36.976Z,31.92
2022-08-03T13:01:09.197Z,32.12
2022-08-03T13:03:45.785Z,32.22
2022-08-03T13:06:18.922Z,32.12
2022-08-03T13:08:47.930Z,32.19
2022-08-03T13:11:50.667Z,32.39
2022-08-03T13:14:13.486Z,32.47
2022-08-03T13:16:45.802Z,32.28
2022-08-03T13:19:15.544Z,32.46
2022-08-03T13:21:53.739Z,32.53
2022-08-03T13:24:30.507Z,32.64
2022-08-03T13:26:58.153Z,32.57
2022-08-03T13:29:24.735Z,32.58
2022-08-03T13:31:51.646Z,32.60
2022-08-03T13:34:22.965Z,32.44
2022-08-03T13:37:08.328Z,32.48
2022-08-03T13:39:57.545Z,32.57
2022-08-03T13:42:22.791Z,32.37
2022-08-03T13:44:49.448Z,32.45
2022-08-03T13:47:16.157Z,32.46
2022-08-03T13:49:59.475Z,32.39
2022-08-03T13:52:27.546Z,32.60
2022-08-03T13:54:54.089Z,32.80
2022-08-03T13:58:05.728Z,32.71
2022-08-03T14:00:08.035Z,32.66
2022-08-03T14:02:34.542Z,32.38
2022-08-03T14:05:01.050Z,32.36
2022-08-03T14:07:27.540Z,32.44
2022-08-03T14:09:54.041Z,32.42
2022-08-03T14:12:20.503Z,32.59
2022-08-03T14:14:46.987Z,32.85
2022-08-03T14:17:13.478Z,32.76
2022-08-03T14:19:53.218Z,32.68
2022-08-03T14:22:21.496Z,32.72
2022-08-03T14:24:48.081Z,32.76
2022-08-03T14:27:16.291Z,32.64
2022-08-03T14:29:42.745Z,32.47
2022-08-03T14:32:12.883Z,32.62
2022-08-03T14:34:40.383Z,32.76
2022-08-03T14:37:07.120Z,32.69
2022-08-03T14:42:20.447Z,32.57
2022-08-03T14:44:48.000Z,32.67
2022-08-03T14:47:14.767Z,32.71
2022-08-03T14:50:31.915Z,32.72
2022-08-03T14:52:28.249Z,32.68
2022-08-03T14:54:54.754Z,32.59
2022-08-03T14:57:21.561Z,32.56
2022-08-03T14:59:55.561Z,32.56
2022-08-03T15:02:24.545Z,32.52
2022-08-03T15:04:51.540Z,32.63
2022-08-03T15:07:18.482Z,32.64
2022-08-03T15:09:45.092Z,32.52
2022-08-03T15:12:11.641Z,32.54
2022-08-03T15:14:39.088Z,32.72
2022-08-03T15:17:06.173Z,32.74
2022-08-03T15:20:03.518Z,32.80
2022-08-03T15:22:20.673Z,32.71
2022-08-03T15:24:51.305Z,32.63
2022-08-03T15:27:17.905Z,32.74
2022-08-03T15:30:04.916Z,32.77
2022-08-03T15:32:30.966Z,32.75
2022-08-03T15:34:57.438Z,32.87
2022-08-03T15:37:25.605Z,32.89
2022-08-03T15:39:59.345Z,32.80
2022-08-03T15:42:30.592Z,32.92
2022-08-03T15:44:57.058Z,32.93
2022-08-03T15:47:23.609Z,32.83
2022-08-03T15:49:50.062Z,32.80
2022-08-03T15:52:16.594Z,32.70
2022-08-03T15:54:43.137Z,32.70
2022-08-03T15:57:09.807Z,32.77
2022-08-03T15:59:36.616Z,32.78
2022-08-03T16:02:03.766Z,32.72
2022-08-03T16:04:30.259Z,32.61
2022-08-03T16:06:56.742Z,32.61
2022-08-03T16:09:43.113Z,32.57
2022-08-03T16:12:14.548Z,32.56
2022-08-03T16:14:51.804Z,32.49
2022-08-03T16:17:20.355Z,32.54
2022-08-03T16:19:47.029Z,32.59
2022-08-03T16:22:14.550Z,32.66
2022-08-03T16:24:41.271Z,32.76
2022-08-03T16:27:17.338Z,32.71
2022-08-03T16:29:44.188Z,32.66
2022-08-03T16:32:11.098Z,32.63
2022-08-03T16:34:39.232Z,32.52
2022-08-03T16:37:35.355Z,32.53
2022-08-03T16:39:53.479Z,32.58
2022-08-03T16:42:19.953Z,32.57
2022-08-03T16:44:46.470Z,32.53
2022-08-03T16:47:22.239Z,32.50
2022-08-03T16:49:53.890Z,32.53
2022-08-03T16:52:23.697Z,32.54
2022-08-03T16:54:53.693Z,32.51
2022-08-03T16:57:55.787Z,32.45
2022-08-03T17:00:34.222Z,32.45
2022-08-03T17:03:03.881Z,32.46
2022-08-03T17:05:43.712Z,32.44
2022-08-03T17:08:14.614Z,32.43
2022-08-03T17:10:45.154Z,32.38
2022-08-03T17:13:22.004Z,32.29
2022-08-03T17:16:00.873Z,32.19
2022-08-03T17:18:34.064Z,32.14
2022-08-03T17:21:05.742Z,32.10
2022-08-03T17:23:42.233Z,32.10
2022-08-03T17:26:21.079Z,32.08
2022-08-03T17:28:57.663Z,32.02
2022-08-03T17:31:31.740Z,31.97
2022-08-03T17:34:01.837Z,31.93
2022-08-03T17:39:23.535Z,31.93
2022-08-03T17:42:00.709Z,31.87
2022-08-03T17:44:33.157Z,31.87
2022-08-03T17:47:08.625Z,31.83
2022-08-03T17:49:40.058Z,31.81
2022-08-03T17:52:27.880Z,31.78
2022-08-03T17:55:55.587Z,31.70
2022-08-03T17:58:11.521Z,31.60
2022-08-03T18:00:59.696Z,31.56
2022-08-03T18:03:58.357Z,31.50
2022-08-03T18:06:31.626Z,31.39
2022-08-03T18:09:04.708Z,31.35
2022-08-03T18:11:35.710Z,31.35
2022-08-03T18:14:23.855Z,31.34
2022-08-03T18:17:00.853Z,31.26
2022-08-03T18:20:01.352Z,31.20
2022-08-03T18:22:21.915Z,31.12
2022-08-03T18:24:52.649Z,31.09
2022-08-03T18:27:21.233Z,31.05
2022-08-03T18:29:49.510Z,30.89
2022-08-03T18:32:17.231Z,30.48
2022-08-03T18:34:53.433Z,30.16
2022-08-03T18:37:26.021Z,29.94
2022-08-03T18:39:55.674Z,29.76
2022-08-03T18:42:26.499Z,29.57
2022-08-03T18:44:56.223Z,29.45
2022-08-03T18:47:52.091Z,29.39
2022-08-03T18:50:34.065Z,29.42
2022-08-03T18:53:16.442Z,29.35
2022-08-03T18:56:14.544Z,29.18
2022-08-03T18:58:48.064Z,28.95
2022-08-03T19:02:00.611Z,28.81
2022-08-03T19:04:38.749Z,28.69
2022-08-03T19:07:09.446Z,28.66
2022-08-03T19:09:53.041Z,28.69
2022-08-03T19:12:28.083Z,28.75
2022-08-03T19:15:01.450Z,28.75
2022-08-03T19:17:32.575Z,28.74
2022-08-03T19:20:03.189Z,28.72
2022-08-03T19:22:31.543Z,28.68
2022-08-03T19:25:01.327Z,28.64
2022-08-03T19:27:32.103Z,28.67
2022-08-03T19:30:03.894Z,28.63
2022-08-03T19:32:32.602Z,28.65
2022-08-03T19:35:00.760Z,28.68
2022-08-03T19:37:38.094Z,28.66
2022-08-03T19:40:10.711Z,28.67
2022-08-03T19:42:44.479Z,28.70
2022-08-03T19:45:15.177Z,28.71
2022-08-03T19:47:47.465Z,28.71
2022-08-03T19:50:16.365Z,28.73
2022-08-03T19:52:47.289Z,28.73
2022-08-03T19:55:15.783Z,28.72
2022-08-03T19:57:45.999Z,28.74
2022-08-03T20:00:14.015Z,28.73
2022-08-03T20:02:41.340Z,28.69
2022-08-03T20:08:01.411Z,28.54
2022-08-03T20:10:33.483Z,28.52
2022-08-03T20:13:01.751Z,28.51
2022-08-03T20:15:31.603Z,28.47
2022-08-03T20:17:59.179Z,28.48
2022-08-03T20:20:32.557Z,28.49
2022-08-03T20:23:02.112Z,28.43
2022-08-03T20:25:38.613Z,28.39
2022-08-03T20:28:13.962Z,28.30
2022-08-03T20:30:43.375Z,28.14
2022-08-03T20:33:10.074Z,27.97
2022-08-03T20:35:36.787Z,27.81
2022-08-03T20:38:03.507Z,27.73
2022-08-03T20:40:30.043Z,27.76
2022-08-03T20:42:57.292Z,27.86
2022-08-03T20:45:58.225Z,27.86
2022-08-03T20:48:10.587Z,27.75
2022-08-03T20:50:40.543Z,27.71
2022-08-03T20:53:10.008Z,27.68
2022-08-03T20:55:53.878Z,27.65
2022-08-03T20:58:25.662Z,27.58
2022-08-03T21:00:54.378Z,27.58
2022-08-03T21:03:20.883Z,27.53
2022-08-03T21:05:51.864Z,27.50
2022-08-03T21:08:22.367Z,27.43
2022-08-03T21:10:50.081Z,27.35
2022-08-03T21:13:03.419Z,28.61
2022-08-03T21:13:42.882Z,27.34
2022-08-03T21:16:15.061Z,27.35
2022-08-03T21:18:48.427Z,27.35
2022-08-03T21:21:17.561Z,27.36
2022-08-03T21:23:48.371Z,27.38
2022-08-03T21:26:17.172Z,27.44
2022-08-03T21:28:46.781Z,27.52
2022-08-03T21:31:14.879Z,27.56
2022-08-03T21:33:56.691Z,27.56
2022-08-03T21:36:24.917Z,27.45
2022-08-03T21:38:56.357Z,27.28
2022-08-03T21:41:23.868Z,27.08
2022-08-03T21:43:50.340Z,26.99
2022-08-03T21:46:19.001Z,27.08
2022-08-03T21:48:48.059Z,27.15
2022-08-03T21:51:18.384Z,27.14
2022-08-03T21:54:03.425Z,27.10
2022-08-03T21:56:42.410Z,27.12
2022-08-03T21:59:16.903Z,27.08
2022-08-03T22:01:48.800Z,27.09
2022-08-03T22:04:53.407Z,26.82
2022-08-03T22:07:07.442Z,26.71
2022-08-03T22:09:35.286Z,26.73
2022-08-03T22:12:01.812Z,26.80
2022-08-03T22:14:29.018Z,26.89
2022-08-03T22:16:56.288Z,26.86
2022-08-03T22:19:22.865Z,26.83
2022-08-03T22:21:49.965Z,26.80
2022-08-03T22:24:23.991Z,26.78
2022-08-03T22:27:09.674Z,26.82
2022-08-03T22:29:37.716Z,26.78
2022-08-03T22:32:04.342Z,26.75
2022-08-03T22:34:31.117Z,26.74
2022-08-03T22:37:03.047Z,26.65
2022-08-03T22:39:30.086Z,26.47
2022-08-03T22:41:58.917Z,26.32
2022-08-03T22:44:26.842Z,26.27
2022-08-03T22:46:53.576Z,26.38
2022-08-03T22:49:20.721Z,26.38
2022-08-03T22:51:47.638Z,26.36
2022-08-03T22:54:14.985Z,26.31
2022-08-03T22:56:41.873Z,26.24
2022-08-03T22:59:40.598Z,26.12
2022-08-03T23:01:59.178Z,26.13
2022-08-03T23:04:26.211Z,26.04
2022-08-03T23:06:56.492Z,25.85
2022-08-03T23:09:24.249Z,25.75
2022-08-03T23:11:53.476Z,25.66
2022-08-03T23:14:22.384Z,25.59
2022-08-03T23:16:53.586Z,25.62
2022-08-03T23:19:25.327Z,25.66
2022-08-03T23:22:02.469Z,25.63
2022-08-03T23:24:30.500Z,25.77
2022-08-03T23:26:58.186Z,25.85
2022-08-03T23:29:26.274Z,25.91
2022-08-03T23:31:53.693Z,26.00
2022-08-03T23:34:41.596Z,25.95
2022-08-03T23:37:12.869Z,25.89
2022-08-03T23:39:40.388Z,25.88
2022-08-03T23:42:07.059Z,25.81
2022-08-03T23:44:34.575Z,25.69
2022-08-03T23:47:01.085Z,25.61
2022-08-03T23:49:27.624Z,25.71
2022-08-03T23:52:10.452Z,25.81
2022-08-03T23:54:52.477Z,25.73
2022-08-03T23:57:37.516Z,25.74
